createdAt,value
2022-10-13T00:01:38.153Z,12.63
2022-10-13T00:04:07.056Z,12.78
2022-10-13T00:06:34.551Z,12.85
2022-10-13T00:09:02.133Z,12.89
2022-10-13T00:11:31.224Z,12.72
2022-10-13T00:14:01.544Z,12.79
2022-10-13T00:16:30.730Z,12.47
2022-10-13T00:18:58.984Z,12.44
2022-10-13T00:21:28.860Z,12.66
2022-10-13T00:23:57.150Z,12.60
2022-10-13T00:26:26.000Z,12.02
2022-10-13T00:28:54.691Z,12.63
2022-10-13T00:31:24.239Z,12.74
2022-10-13T00:33:52.790Z,12.68
2022-10-13T00:36:20.734Z,12.72
2022-10-13T00:38:49.722Z,12.71
2022-10-13T00:41:17.683Z,12.84
2022-10-13T00:43:51.334Z,12.99
2022-10-13T00:46:18.967Z,12.85
2022-10-13T00:48:48.081Z,12.95
2022-10-13T00:51:19.005Z,13.04
2022-10-13T00:53:50.361Z,13.15
2022-10-13T00:56:20.468Z,12.96
2022-10-13T00:58:49.819Z,12.81
2022-10-13T01:01:17.892Z,12.83
2022-10-13T01:03:45.536Z,12.92
2022-10-13T01:06:14.264Z,13.03
2022-10-13T01:08:41.791Z,13.13
2022-10-13T01:11:36.786Z,13.24
2022-10-13T01:14:25.136Z,13.22
2022-10-13T01:17:02.131Z,13.21
2022-10-13T01:19:58.193Z,13.06
2022-10-13T01:22:45.537Z,13.00
2022-10-13T01:25:27.979Z,12.70
2022-10-13T01:28:19.738Z,12.72
2022-10-13T01:30:53.163Z,12.93
2022-10-13T01:33:31.410Z,12.83
2022-10-13T01:36:07.805Z,12.80
2022-10-13T01:38:40.875Z,13.02
2022-10-13T01:41:14.794Z,13.24
2022-10-13T01:43:46.632Z,13.26
2022-10-13T01:46:18.392Z,13.31
2022-10-13T01:48:46.692Z,13.39
2022-10-13T01:51:19.759Z,13.45
2022-10-13T01:53:48.526Z,13.36
2022-10-13T01:56:16.430Z,13.36
2022-10-13T01:58:44.519Z,13.39
2022-10-13T02:01:35.880Z,13.75
2022-10-13T02:04:15.762Z,13.96
2022-10-13T02:06:48.667Z,14.09
2022-10-13T02:09:24.164Z,14.11
2022-10-13T02:11:58.965Z,14.10
2022-10-13T02:14:30.673Z,14.14
2022-10-13T02:17:02.516Z,14.01
2022-10-13T02:19:31.616Z,14.09
2022-10-13T02:21:59.692Z,14.08
2022-10-13T02:24:27.551Z,13.97
2022-10-13T02:26:55.145Z,13.87
2022-10-13T02:29:22.897Z,13.69
2022-10-13T02:31:50.416Z,13.57
2022-10-13T02:34:19.314Z,13.49
2022-10-13T02:36:46.880Z,13.37
2022-10-13T02:39:14.482Z,13.61
2022-10-13T02:41:42.048Z,13.71
2022-10-13T02:44:09.619Z,13.84
2022-10-13T02:46:37.155Z,13.96
2022-10-13T02:49:04.703Z,13.99
2022-10-13T02:51:38.933Z,13.99
2022-10-13T02:54:07.567Z,14.11
2022-10-13T02:56:35.165Z,14.19
2022-10-13T02:59:02.695Z,14.06
2022-10-13T03:01:30.394Z,13.89
2022-10-13T03:03:57.963Z,13.86
2022-10-13T03:06:25.649Z,13.82
2022-10-13T03:08:54.515Z,14.03
2022-10-13T03:11:22.028Z,14.09
2022-10-13T03:13:49.528Z,14.17
2022-10-13T03:16:17.080Z,14.05
2022-10-13T03:18:44.794Z,14.11
2022-10-13T03:21:12.421Z,14.17
2022-10-13T03:23:39.945Z,14.11
2022-10-13T03:26:08.869Z,13.96
2022-10-13T03:28:36.546Z,13.87
2022-10-13T03:31:05.801Z,14.06
2022-10-13T03:33:33.342Z,14.24
2022-10-13T03:36:01.786Z,14.25
2022-10-13T03:38:30.265Z,14.14
2022-10-13T03:40:57.783Z,14.21
2022-10-13T03:43:26.703Z,14.34
2022-10-13T03:45:58.241Z,14.17
2022-10-13T03:48:25.899Z,14.09
2022-10-13T03:50:53.680Z,14.38
2022-10-13T03:53:21.993Z,14.55
2022-10-13T03:55:50.648Z,14.81
2022-10-13T03:58:18.512Z,14.87
2022-10-13T04:00:47.510Z,14.99
2022-10-13T04:03:15.059Z,15.02
2022-10-13T04:05:42.688Z,14.98
2022-10-13T04:08:11.500Z,14.75
2022-10-13T04:10:39.077Z,14.94
2022-10-13T04:13:06.781Z,14.97
2022-10-13T04:15:37.264Z,14.94
2022-10-13T04:18:07.389Z,14.88
2022-10-13T04:20:38.052Z,14.80
2022-10-13T04:23:05.699Z,14.66
2022-10-13T04:25:35.892Z,14.50
2022-10-13T04:28:03.741Z,14.51
2022-10-13T04:30:31.254Z,14.26
2022-10-13T04:32:58.764Z,14.02
2022-10-13T04:35:27.662Z,14.08
2022-10-13T04:37:57.392Z,14.17
2022-10-13T04:40:24.980Z,14.25
2022-10-13T04:42:52.666Z,14.28
2022-10-13T04:45:20.289Z,14.42
2022-10-13T04:47:47.813Z,14.55
2022-10-13T04:50:15.336Z,14.53
2022-10-13T04:52:44.238Z,14.57
2022-10-13T04:55:11.942Z,14.59
2022-10-13T04:57:39.488Z,14.66
2022-10-13T05:00:08.603Z,14.59
2022-10-13T05:02:36.677Z,14.73
2022-10-13T05:05:04.541Z,14.63
2022-10-13T05:07:32.075Z,14.55
2022-10-13T05:10:00.961Z,14.31
2022-10-13T05:12:28.478Z,14.17
2022-10-13T05:14:57.057Z,14.12
2022-10-13T05:17:24.584Z,14.03
2022-10-13T05:19:52.584Z,14.27
2022-10-13T05:22:20.373Z,14.50
2022-10-13T05:24:48.067Z,14.38
2022-10-13T05:27:16.904Z,14.43
2022-10-13T05:29:44.399Z,14.03
2022-10-13T05:32:11.871Z,13.77
2022-10-13T05:34:39.381Z,13.80
2022-10-13T05:37:07.006Z,13.81
2022-10-13T05:39:34.531Z,13.83
2022-10-13T05:42:02.079Z,13.86
2022-10-13T05:44:30.976Z,13.87
2022-10-13T05:46:58.503Z,13.68
2022-10-13T05:49:26.038Z,13.47
2022-10-13T05:51:56.550Z,13.76
2022-10-13T05:54:30.059Z,13.89
2022-10-13T05:57:02.627Z,14.04
2022-10-13T05:59:35.207Z,14.04
2022-10-13T06:02:04.084Z,14.22
2022-10-13T06:04:36.742Z,14.27
2022-10-13T06:07:04.507Z,13.93
2022-10-13T06:09:35.694Z,13.90
2022-10-13T06:12:03.229Z,13.99
2022-10-13T06:14:32.105Z,13.67
2022-10-13T06:16:59.779Z,13.68
2022-10-13T06:19:27.356Z,13.84
2022-10-13T06:21:54.948Z,13.70
2022-10-13T06:24:22.479Z,13.89
2022-10-13T06:26:49.977Z,13.95
2022-10-13T06:29:17.497Z,14.33
2022-10-13T06:31:46.334Z,14.39
2022-10-13T06:34:14.151Z,14.22
2022-10-13T06:36:42.078Z,14.21
2022-10-13T06:39:10.295Z,14.11
2022-10-13T06:41:38.109Z,14.26
2022-10-13T06:44:06.104Z,14.34
2022-10-13T06:46:33.614Z,14.37
2022-10-13T06:49:02.464Z,14.11
2022-10-13T06:51:29.996Z,14.12
2022-10-13T06:53:57.717Z,14.19
2022-10-13T06:56:25.241Z,14.29
2022-10-13T06:58:52.778Z,14.32
2022-10-13T07:01:20.348Z,14.29
2022-10-13T07:03:49.782Z,14.41
2022-10-13T07:06:18.938Z,14.89
2022-10-13T07:08:46.832Z,14.90
2022-10-13T07:11:16.705Z,15.11
2022-10-13T07:13:46.594Z,15.36
2022-10-13T07:16:15.500Z,15.25
2022-10-13T07:18:43.028Z,15.10
2022-10-13T07:21:10.648Z,14.92
2022-10-13T07:23:39.593Z,14.80
2022-10-13T07:26:08.767Z,15.05
2022-10-13T07:28:36.381Z,14.86
2022-10-13T07:31:10.883Z,14.66
2022-10-13T07:33:38.861Z,14.40
2022-10-13T07:36:06.847Z,14.51
2022-10-13T07:38:34.415Z,14.58
2022-10-13T07:41:03.981Z,14.58
2022-10-13T07:43:31.911Z,14.79
2022-10-13T07:46:00.430Z,14.75
2022-10-13T07:48:29.115Z,14.92
2022-10-13T07:50:56.601Z,15.01
2022-10-13T07:53:24.350Z,15.58
2022-10-13T07:55:51.914Z,15.37
2022-10-13T07:58:20.821Z,15.65
2022-10-13T08:00:57.094Z,15.31
2022-10-13T08:03:24.646Z,15.13
2022-10-13T08:05:52.291Z,15.38
2022-10-13T08:08:20.059Z,16.01
2022-10-13T08:10:47.929Z,16.19
2022-10-13T08:13:15.625Z,16.46
2022-10-13T08:15:46.383Z,16.39
2022-10-13T08:18:15.347Z,16.23
2022-10-13T08:20:44.250Z,16.12
2022-10-13T08:23:12.793Z,15.90
2022-10-13T08:25:40.816Z,15.72
2022-10-13T08:28:17.715Z,15.78
2022-10-13T08:30:47.006Z,15.83
2022-10-13T08:33:14.690Z,16.36
2022-10-13T08:35:42.743Z,16.67
2022-10-13T08:38:10.391Z,17.00
2022-10-13T08:40:38.721Z,16.89
2022-10-13T08:43:07.466Z,17.14
2022-10-13T08:45:41.347Z,17.15
2022-10-13T08:48:16.833Z,17.23
2022-10-13T08:50:47.551Z,17.08
2022-10-13T08:53:23.709Z,17.15
2022-10-13T08:55:55.370Z,17.06
2022-10-13T08:58:24.778Z,17.12
2022-10-13T09:00:58.682Z,16.72
2022-10-13T09:03:29.374Z,16.95
2022-10-13T09:06:07.555Z,16.75
2022-10-13T09:08:41.303Z,16.79
2022-10-13T09:11:11.612Z,16.80
2022-10-13T09:13:39.145Z,17.20
2022-10-13T09:16:07.850Z,17.20
2022-10-13T09:18:37.647Z,17.39
2022-10-13T09:21:17.682Z,17.39
2022-10-13T09:23:45.330Z,17.19
2022-10-13T09:26:19.955Z,17.30
2022-10-13T09:28:47.585Z,17.51
2022-10-13T09:31:18.623Z,17.59
2022-10-13T09:33:51.893Z,17.56
2022-10-13T09:36:19.381Z,17.46
2022-10-13T09:39:08.357Z,17.36
2022-10-13T09:41:36.555Z,17.46
2022-10-13T09:44:14.982Z,17.67
2022-10-13T09:46:49.368Z,17.77
2022-10-13T09:49:32.481Z,17.76
2022-10-13T09:52:03.680Z,18.36
2022-10-13T09:54:41.587Z,18.65
2022-10-13T09:57:17.423Z,18.93
2022-10-13T09:59:49.501Z,18.55
2022-10-13T10:02:26.696Z,18.11
2022-10-13T10:04:59.568Z,17.97
2022-10-13T10:07:30.909Z,17.67
2022-10-13T10:10:02.362Z,17.96
2022-10-13T10:12:34.758Z,17.51
2022-10-13T10:15:02.345Z,17.92
2022-10-13T10:17:37.635Z,17.74
2022-10-13T10:20:24.237Z,18.24
2022-10-13T10:23:00.332Z,18.36
2022-10-13T10:25:34.560Z,18.46
2022-10-13T10:28:18.736Z,18.33
2022-10-13T10:30:52.865Z,18.74
2022-10-13T10:33:22.730Z,18.52
2022-10-13T10:35:56.212Z,18.54
2022-10-13T10:38:34.479Z,18.38
2022-10-13T10:41:10.983Z,18.31
2022-10-13T10:43:48.074Z,18.51
2022-10-13T10:46:22.534Z,18.44
2022-10-13T10:48:54.679Z,18.71
2022-10-13T10:51:26.517Z,18.47
2022-10-13T10:54:03.580Z,18.42
2022-10-13T10:56:35.476Z,18.12
2022-10-13T10:59:26.912Z,17.76
2022-10-13T11:02:05.292Z,17.67
2022-10-13T11:04:41.606Z,17.88
2022-10-13T11:07:51.260Z,17.68
2022-10-13T11:10:22.605Z,17.94
2022-10-13T11:13:22.985Z,18.14
2022-10-13T11:15:50.668Z,18.36
2022-10-13T11:19:10.242Z,18.18
2022-10-13T11:22:24.366Z,18.38
2022-10-13T11:25:33.972Z,18.34
2022-10-13T11:28:43.896Z,18.28
2022-10-13T11:31:33.558Z,18.41
2022-10-13T11:34:03.684Z,18.20
2022-10-13T11:36:53.060Z,17.87
2022-10-13T11:39:39.426Z,18.19
2022-10-13T11:42:21.114Z,18.34
2022-10-13T11:44:55.518Z,18.40
2022-10-13T11:47:53.843Z,18.28
2022-10-13T11:50:30.235Z,18.78
2022-10-13T11:53:11.429Z,18.68
2022-10-13T11:55:48.179Z,19.04
2022-10-13T11:58:18.418Z,18.78
2022-10-13T12:00:55.932Z,19.02
2022-10-13T12:03:27.397Z,19.36
2022-10-13T12:05:58.868Z,19.40
2022-10-13T12:08:28.272Z,19.33
2022-10-13T12:10:58.242Z,19.66
2022-10-13T12:13:28.239Z,19.95
2022-10-13T12:16:03.311Z,20.03
2022-10-13T12:18:34.064Z,20.12
2022-10-13T12:21:04.142Z,19.98
2022-10-13T12:23:33.481Z,19.89
2022-10-13T12:26:01.471Z,19.14
2022-10-13T12:28:31.872Z,18.83
2022-10-13T12:31:01.468Z,18.99
2022-10-13T12:33:31.554Z,19.06
2022-10-13T12:36:12.901Z,18.93
2022-10-13T12:38:46.594Z,18.24
2022-10-13T12:41:17.949Z,18.22
2022-10-13T12:43:46.120Z,18.43
2022-10-13T12:46:38.307Z,18.86
2022-10-13T12:49:06.265Z,19.09
2022-10-13T12:51:35.465Z,19.13
2022-10-13T12:54:08.473Z,18.64
2022-10-13T12:56:41.805Z,19.00
2022-10-13T12:59:17.628Z,19.42
2022-10-13T13:01:53.269Z,19.13
2022-10-13T13:04:31.272Z,19.18
2022-10-13T13:07:00.754Z,18.88
2022-10-13T13:09:30.325Z,19.01
2022-10-13T13:12:20.792Z,19.09
2022-10-13T13:14:49.817Z,18.68
2022-10-13T13:20:23.811Z,18.95
2022-10-13T13:22:51.797Z,17.87
2022-10-13T13:25:19.729Z,17.57
2022-10-13T13:27:47.295Z,17.70
2022-10-13T13:30:17.135Z,17.95
2022-10-13T13:32:46.202Z,18.13
2022-10-13T13:35:14.108Z,17.99
2022-10-13T13:37:44.861Z,17.96
2022-10-13T13:40:17.019Z,17.84
2022-10-13T13:42:44.823Z,17.94
2022-10-13T13:45:13.471Z,17.83
2022-10-13T13:47:41.045Z,17.96
2022-10-13T13:50:16.992Z,17.99
2022-10-13T13:52:44.493Z,18.25
2022-10-13T13:55:12.031Z,18.19
2022-10-13T13:57:39.559Z,18.65
2022-10-13T14:00:08.254Z,18.28
2022-10-13T14:02:35.823Z,18.15
2022-10-13T14:05:03.889Z,17.87
2022-10-13T14:07:32.804Z,17.28
2022-10-13T14:10:02.112Z,17.35
2022-10-13T14:12:30.565Z,17.52
2022-10-13T14:14:58.476Z,17.28
2022-10-13T14:17:26.161Z,17.39
2022-10-13T14:19:53.800Z,17.40
2022-10-13T14:22:22.871Z,17.41
2022-10-13T14:24:52.038Z,17.77
2022-10-13T14:27:19.615Z,17.74
2022-10-13T14:29:47.167Z,17.78
2022-10-13T14:32:14.761Z,17.87
2022-10-13T14:34:42.304Z,18.05
2022-10-13T14:37:09.840Z,17.99
2022-10-13T14:39:37.360Z,17.13
2022-10-13T14:42:06.311Z,16.90
2022-10-13T14:44:33.801Z,16.66
2022-10-13T14:47:01.491Z,16.48
2022-10-13T14:49:29.036Z,16.34
2022-10-13T14:51:56.587Z,16.57
2022-10-13T14:54:24.943Z,16.85
2022-10-13T14:56:52.670Z,16.60
2022-10-13T14:59:21.647Z,16.49
2022-10-13T15:01:49.945Z,16.81
2022-10-13T15:04:17.460Z,16.27
2022-10-13T15:06:45.047Z,16.40
2022-10-13T15:09:12.842Z,16.99
2022-10-13T15:11:40.462Z,16.80
2022-10-13T15:14:09.634Z,16.81
2022-10-13T15:16:38.612Z,17.15
2022-10-13T15:19:06.788Z,17.14
2022-10-13T15:21:34.326Z,17.31
2022-10-13T15:24:02.381Z,17.37
2022-10-13T15:26:29.968Z,16.95
2022-10-13T15:28:57.590Z,16.98
2022-10-13T15:31:25.340Z,17.35
2022-10-13T15:33:55.093Z,17.66
2022-10-13T15:36:23.646Z,17.83
2022-10-13T15:38:52.121Z,17.86
2022-10-13T15:41:21.391Z,18.16
2022-10-13T15:43:48.900Z,17.79
2022-10-13T15:46:21.341Z,17.60
2022-10-13T15:48:49.157Z,17.85
2022-10-13T15:51:20.392Z,17.47
2022-10-13T15:53:48.315Z,17.25
2022-10-13T15:56:16.278Z,17.03
2022-10-13T15:58:43.924Z,17.28
2022-10-13T16:01:14.198Z,17.35
2022-10-13T16:03:42.244Z,17.41
2022-10-13T16:06:12.195Z,17.41
2022-10-13T16:08:43.656Z,16.78
2022-10-13T16:11:12.149Z,16.84
2022-10-13T16:13:39.859Z,16.86
2022-10-13T16:16:07.820Z,16.54
2022-10-13T16:18:37.859Z,16.78
2022-10-13T16:21:11.431Z,16.91
2022-10-13T16:23:42.181Z,16.89
2022-10-13T16:26:10.480Z,16.86
2022-10-13T16:28:38.549Z,16.74
2022-10-13T16:31:08.484Z,16.63
2022-10-13T16:33:36.536Z,16.58
2022-10-13T16:36:04.781Z,16.59
2022-10-13T16:38:32.320Z,16.54
2022-10-13T16:41:04.475Z,16.53
2022-10-13T16:43:32.610Z,16.47
2022-10-13T16:46:01.905Z,16.30
2022-10-13T16:48:30.735Z,16.20
2022-10-13T16:50:58.500Z,16.17
2022-10-13T16:53:26.007Z,16.13
2022-10-13T16:55:53.585Z,16.12
2022-10-13T16:58:22.545Z,16.08
2022-10-13T17:00:50.119Z,16.07
2022-10-13T17:03:17.825Z,16.06
2022-10-13T17:05:45.327Z,16.03
2022-10-13T17:08:12.865Z,16.04
2022-10-13T17:10:40.380Z,15.97
2022-10-13T17:13:07.900Z,15.65
2022-10-13T17:15:36.763Z,15.75
2022-10-13T17:18:04.303Z,15.61
2022-10-13T17:20:31.835Z,15.48
2022-10-13T17:22:59.309Z,15.43
2022-10-13T17:25:26.819Z,15.50
2022-10-13T17:27:54.323Z,15.54
2022-10-13T17:30:22.113Z,15.57
2022-10-13T17:32:52.077Z,15.54
2022-10-13T17:35:19.593Z,15.53
2022-10-13T17:37:50.218Z,15.43
2022-10-13T17:40:17.900Z,15.37
2022-10-13T17:42:45.421Z,15.33
2022-10-13T17:45:13.038Z,15.35
2022-10-13T17:47:40.584Z,15.34
2022-10-13T17:50:10.379Z,15.16
2022-10-13T17:52:37.901Z,15.23
2022-10-13T17:55:06.230Z,15.23
2022-10-13T17:57:33.819Z,15.19
2022-10-13T18:00:01.363Z,15.10
2022-10-13T18:02:28.867Z,15.19
2022-10-13T18:04:56.361Z,15.05
2022-10-13T18:07:25.218Z,15.01
2022-10-13T18:09:53.043Z,14.90
2022-10-13T18:12:20.971Z,14.72
2022-10-13T18:14:48.519Z,14.42
2022-10-13T18:17:16.049Z,14.53
2022-10-13T18:19:43.784Z,14.50
2022-10-13T18:22:11.681Z,14.61
2022-10-13T18:24:40.553Z,14.65
2022-10-13T18:27:08.078Z,14.43
2022-10-13T18:29:35.602Z,14.49
2022-10-13T18:32:03.137Z,14.52
2022-10-13T18:34:30.891Z,14.14
2022-10-13T18:36:58.541Z,14.12
2022-10-13T18:39:28.621Z,14.24
2022-10-13T18:41:57.976Z,14.38
2022-10-13T18:44:26.017Z,14.28
2022-10-13T18:46:56.320Z,14.24
2022-10-13T18:49:30.726Z,14.32
2022-10-13T18:51:59.141Z,14.11
2022-10-13T18:54:27.332Z,13.66
2022-10-13T18:56:54.873Z,13.61
2022-10-13T18:59:23.916Z,13.75
2022-10-13T19:01:51.809Z,13.84
2022-10-13T19:04:21.284Z,13.83
2022-10-13T19:06:49.116Z,13.78
2022-10-13T19:09:17.341Z,13.57
2022-10-13T19:11:45.362Z,13.57
2022-10-13T19:14:14.228Z,13.47
2022-10-13T19:16:44.755Z,13.55
2022-10-13T19:19:13.179Z,13.62
2022-10-13T19:21:41.107Z,13.75
2022-10-13T19:24:09.220Z,13.82
2022-10-13T19:26:37.374Z,13.83
2022-10-13T19:29:08.261Z,13.89
2022-10-13T19:31:37.438Z,13.85
2022-10-13T19:34:06.353Z,13.83
2022-10-13T19:36:37.368Z,14.00
2022-10-13T19:39:07.802Z,13.71
2022-10-13T19:41:35.921Z,13.25
2022-10-13T19:44:03.619Z,13.28
2022-10-13T19:46:31.204Z,13.53
2022-10-13T19:48:58.708Z,13.63
2022-10-13T19:51:27.569Z,13.66
2022-10-13T19:53:55.137Z,13.65
2022-10-13T19:56:25.105Z,13.64
2022-10-13T19:58:53.106Z,13.72
2022-10-13T20:01:21.468Z,13.74
2022-10-13T20:03:49.170Z,13.76
2022-10-13T20:06:18.077Z,13.51
2022-10-13T20:08:47.367Z,13.50
2022-10-13T20:11:23.418Z,13.27
2022-10-13T20:13:52.728Z,13.33
2022-10-13T20:16:22.949Z,13.48
2022-10-13T20:18:53.349Z,13.14
2022-10-13T20:21:21.165Z,12.86
2022-10-13T20:23:50.648Z,13.06
2022-10-13T20:26:18.973Z,13.32
2022-10-13T20:28:48.471Z,13.36
2022-10-13T20:31:19.185Z,13.30
2022-10-13T20:33:49.317Z,13.43
2022-10-13T20:36:18.429Z,13.32
2022-10-13T20:38:46.712Z,13.41
2022-10-13T20:41:19.474Z,13.30
2022-10-13T20:43:47.441Z,13.47
2022-10-13T20:46:16.890Z,13.60
2022-10-13T20:49:09.261Z,13.66
2022-10-13T20:51:32.933Z,13.76
2022-10-13T20:54:00.446Z,13.81
2022-10-13T20:56:29.359Z,13.86
2022-10-13T20:58:57.122Z,13.87
2022-10-13T21:01:24.668Z,13.74
2022-10-13T21:03:52.832Z,13.84
2022-10-13T21:06:20.679Z,13.84
2022-10-13T21:08:48.356Z,13.99
2022-10-13T21:11:17.852Z,13.90
2022-10-13T21:13:47.056Z,13.78
2022-10-13T21:16:17.555Z,13.85
2022-10-13T21:18:47.857Z,13.61
2022-10-13T21:21:17.115Z,13.44
2022-10-13T21:23:44.811Z,13.45
2022-10-13T21:26:16.243Z,13.54
2022-10-13T21:28:47.933Z,12.86
2022-10-13T21:31:16.792Z,11.52
2022-10-13T21:33:44.799Z,11.38
2022-10-13T21:36:14.700Z,11.63
2022-10-13T21:38:43.153Z,11.93
2022-10-13T21:41:12.899Z,12.89
2022-10-13T21:43:40.843Z,13.59
2022-10-13T21:46:14.630Z,14.18
2022-10-13T21:48:42.347Z,14.36
2022-10-13T21:51:14.441Z,14.69
2022-10-13T21:53:42.521Z,14.83
2022-10-13T21:56:11.821Z,14.85
2022-10-13T21:58:39.432Z,14.75
2022-10-13T22:01:07.992Z,14.68
2022-10-13T22:03:36.941Z,14.69
2022-10-13T22:06:06.681Z,14.87
2022-10-13T22:08:38.537Z,14.24
2022-10-13T22:11:08.385Z,14.53
2022-10-13T22:13:37.139Z,14.78
2022-10-13T22:16:05.616Z,14.83
2022-10-13T22:18:33.194Z,15.04
2022-10-13T22:21:03.079Z,14.87
2022-10-13T22:23:31.259Z,15.06
2022-10-13T22:25:58.940Z,15.07
2022-10-13T22:28:26.663Z,14.94
2022-10-13T22:30:54.641Z,14.82
2022-10-13T22:33:22.303Z,14.84
2022-10-13T22:35:49.817Z,14.60
2022-10-13T22:38:18.688Z,13.95
2022-10-13T22:40:46.187Z,13.75
2022-10-13T22:43:13.720Z,13.53
2022-10-13T22:45:50.551Z,13.88
2022-10-13T22:48:18.064Z,14.10
2022-10-13T22:50:45.743Z,14.33
2022-10-13T22:53:13.303Z,14.70
2022-10-13T22:55:42.363Z,14.31
2022-10-13T22:58:09.956Z,14.36
2022-10-13T23:00:38.512Z,14.67
2022-10-13T23:03:06.872Z,14.91
2022-10-13T23:05:34.531Z,15.06
2022-10-13T23:08:02.056Z,15.14
2022-10-13T23:10:29.575Z,15.24
2022-10-13T23:12:58.439Z,15.13
2022-10-13T23:15:25.956Z,15.18
2022-10-13T23:17:53.460Z,15.29
2022-10-13T23:20:21.047Z,15.33
2022-10-13T23:22:48.557Z,15.36
2022-10-13T23:25:16.151Z,15.26
2022-10-13T23:27:43.671Z,14.90
2022-10-13T23:30:13.919Z,14.98
2022-10-13T23:32:41.463Z,15.01
2022-10-13T23:35:09.600Z,15.05
2022-10-13T23:37:37.139Z,14.81
2022-10-13T23:40:05.318Z,14.72
2022-10-13T23:42:32.881Z,14.99
2022-10-13T23:45:00.396Z,15.11
2022-10-13T23:47:29.259Z,15.23
2022-10-13T23:49:56.767Z,15.30
2022-10-13T23:52:24.327Z,15.32
2022-10-13T23:54:51.866Z,15.30
2022-10-13T23:57:19.574Z,15.30
2022-10-13T23:59:47.499Z,15.27
